Franconia, New Hampshire
Current Conditions -  °F | °C
As of 2:16 PM on Friday 24 Oct 2014 (Local Time) from KHIE Reporting Station
Overcast Overcast  
Wind Chill: 43°   Ceiling: 2100
Heat Index: 46°   Visibility: 10mi
Dew Point: 41°   Wind: 6mph
Humidity: 83%   Direction: 340°NNW
Pressure: 29.74"   Gusts: NA
Location:  44.23°N, 71.75°W
Report Text: KHIE 241816Z AUTO 34005KT 10SM SCT013 OVC021 08/05 A2974 RMK AO2 T00780050
Loading
Personal Weather Stations






























Interactive Weather Map New forecast layout! Learn more

10-Day Weather Forecast

Advertisements
Track Severe Weather on mobile